Time;durP1;ratioP1;P1;durP2;ratioP2;P2;SDS_P1;SDS_P2;PMS_P1;PMS_P2;Temp;Humidity;BMP_temperature;BMP_pressure;BME280_temperature;BME280_humidity;BME280_pressure;Samples;Min_cycle;Max_cycle;Signal;HPM_P1;HPM_P2
2021/03/30 00:01:54;;;;;;;11.90;4.47;;;;;;;;;;5054210;28;20308;-74
2021/03/30 00:04:21;;;;;;;9.30;5.00;;;;;;;;;;5053964;28;20655;-74
2021/03/30 00:06:48;;;;;;;16.00;4.47;;;;;;;;;;5056185;28;20409;-74
2021/03/30 00:09:14;;;;;;;12.90;4.80;;;;;;;;;;5054175;28;20287;-74
2021/03/30 00:11:42;;;;;;;10.67;4.37;;;;;;;;;;5052894;28;20337;-73
2021/03/30 00:14:09;;;;;;;11.57;4.67;;;;;;;;;;5054927;28;20206;-74
2021/03/30 00:16:35;;;;;;;11.17;4.53;;;;;;;;;;5056031;28;21841;-74
2021/03/30 00:19:02;;;;;;;11.47;4.53;;;;;;;;;;5055312;28;20291;-74
2021/03/30 00:21:29;;;;;;;10.83;5.00;;;;;;;;;;5057582;28;20306;-74
2021/03/30 00:23:55;;;;;;;8.57;4.40;;;;;;;;;;5056131;28;20296;-73
2021/03/30 00:26:22;;;;;;;11.87;4.90;;;;;;;;;;5061251;28;20290;-75
2021/03/30 00:28:50;;;;;;;10.23;4.83;;;;;;;;;;5058900;28;20290;-75
2021/03/30 00:31:16;;;;;;;11.50;4.87;;;;;;;;;;5060387;28;20253;-73
2021/03/30 00:33:43;;;;;;;11.27;4.77;;;;;;;;;;5060694;28;20721;-73
2021/03/30 00:36:12;;;;;;;10.53;4.23;;;;;;;;;;5059740;28;20226;-73
2021/03/30 00:38:40;;;;;;;11.73;4.80;;;;;;;;;;5054811;28;20203;-74
2021/03/30 00:41:07;;;;;;;11.93;4.30;;;;;;;;;;5058209;28;20313;-74
2021/03/30 00:43:33;;;;;;;11.17;4.80;;;;;;;;;;5060349;28;20293;-73
2021/03/30 00:46:01;;;;;;;13.33;4.30;;;;;;;;;;5058956;28;20429;-74
2021/03/30 00:48:29;;;;;;;12.43;4.50;;;;;;;;;;5057479;28;20289;-74
2021/03/30 00:50:56;;;;;;;9.87;4.73;;;;;;;;;;5056076;28;20222;-73
2021/03/30 00:53:25;;;;;;;14.13;4.40;;;;;;;;;;5057241;28;20293;-75
2021/03/30 00:55:52;;;;;;;13.57;4.17;;;;;;;;;;5057285;28;20297;-73
2021/03/30 00:58:19;;;;;;;12.77;4.57;;;;;;;;;;5058471;28;20310;-75
2021/03/30 01:00:48;;;;;;;11.70;5.27;;;;;;;;;;5063472;28;20301;-73
2021/03/30 01:03:15;;;;;;;11.77;4.60;;;;;;;;;;5058006;28;20230;-73
2021/03/30 01:05:42;;;;;;;11.00;4.60;;;;;;;;;;5058496;28;20310;-73
2021/03/30 01:08:20;;;;;;;14.33;4.77;;;;;;;;;;5058996;28;20300;-73
2021/03/30 01:10:51;;;;;;;14.67;5.13;;;;;;;;;;5058911;28;20313;-73
2021/03/30 01:13:27;;;;;;;12.30;4.33;;;;;;;;;;5057263;28;20289;-74
2021/03/30 01:16:00;;;;;;;10.47;4.73;;;;;;;;;;5076598;22;23039;-83
2021/03/30 01:18:30;;;;;;;13.10;4.90;;;;;;;;;;5073343;28;20207;-83
2021/03/30 01:21:18;;;;;;;10.87;4.67;;;;;;;;;;5066353;28;20677;-83
2021/03/30 01:23:58;;;;;;;10.80;4.67;;;;;;;;;;5071956;28;20245;-83
2021/03/30 01:26:30;;;;;;;15.33;5.07;;;;;;;;;;5060674;28;20230;-83
2021/03/30 01:29:02;;;;;;;13.47;5.40;;;;;;;;;;5055978;28;20292;-82
2021/03/30 01:31:33;;;;;;;11.37;4.37;;;;;;;;;;5054587;28;20199;-83
2021/03/30 01:34:01;;;;;;;12.00;4.47;;;;;;;;;;5059887;28;20284;-82
2021/03/30 01:36:30;;;;;;;11.97;4.67;;;;;;;;;;5053825;28;20273;-82
2021/03/30 01:39:00;;;;;;;11.87;4.77;;;;;;;;;;5054425;28;20238;-83
2021/03/30 01:41:26;;;;;;;12.50;4.80;;;;;;;;;;5060137;28;20202;-83
2021/03/30 01:43:57;;;;;;;9.70;4.30;;;;;;;;;;5058926;28;20242;-83
2021/03/30 01:46:25;;;;;;;11.67;4.87;;;;;;;;;;5055683;28;20233;-82
2021/03/30 01:48:52;;;;;;;10.80;4.43;;;;;;;;;;5065336;28;20206;-82
2021/03/30 01:51:19;;;;;;;11.50;4.70;;;;;;;;;;5052075;28;20217;-82
2021/03/30 01:53:46;;;;;;;11.47;4.83;;;;;;;;;;5049509;28;20589;-82
2021/03/30 01:56:16;;;;;;;11.67;4.30;;;;;;;;;;5054788;28;20772;-82
2021/03/30 01:58:44;;;;;;;10.67;5.20;;;;;;;;;;5054189;28;20285;-82
2021/03/30 02:01:14;;;;;;;8.13;4.40;;;;;;;;;;5050789;28;20231;-82
2021/03/30 02:03:41;;;;;;;10.27;4.50;;;;;;;;;;5051278;28;20211;-82
2021/03/30 02:06:09;;;;;;;12.30;4.67;;;;;;;;;;5075120;28;20210;-83
2021/03/30 02:08:36;;;;;;;11.77;4.93;;;;;;;;;;5084138;28;20210;-83
2021/03/30 02:11:03;;;;;;;9.67;4.50;;;;;;;;;;5077324;28;20242;-83
2021/03/30 02:13:33;;;;;;;11.53;4.20;;;;;;;;;;5062343;28;20195;-82
2021/03/30 02:16:03;;;;;;;11.90;4.37;;;;;;;;;;5053039;28;20230;-83
2021/03/30 02:18:33;;;;;;;9.97;4.37;;;;;;;;;;5057576;28;20672;-82
2021/03/30 02:21:02;;;;;;;13.17;4.10;;;;;;;;;;5055127;28;20234;-83
2021/03/30 02:23:32;;;;;;;8.23;4.10;;;;;;;;;;5058976;28;20731;-83
2021/03/30 02:26:00;;;;;;;11.37;4.10;;;;;;;;;;5061698;28;20611;-82
2021/03/30 02:28:34;;;;;;;10.63;4.27;;;;;;;;;;5058530;28;20568;-82
2021/03/30 02:31:02;;;;;;;9.97;4.67;;;;;;;;;;5058403;28;20212;-82
2021/03/30 02:33:29;;;;;;;9.07;4.10;;;;;;;;;;5054081;28;21025;-83
2021/03/30 02:35:56;;;;;;;12.23;4.40;;;;;;;;;;5053909;28;20269;-83
2021/03/30 02:38:24;;;;;;;10.97;4.50;;;;;;;;;;5057237;28;20567;-83
2021/03/30 02:40:53;;;;;;;12.80;4.57;;;;;;;;;;5056848;28;20210;-82
2021/03/30 02:43:21;;;;;;;9.67;4.30;;;;;;;;;;5054929;28;20226;-83
2021/03/30 02:45:50;;;;;;;9.70;3.90;;;;;;;;;;5054108;28;20660;-83
2021/03/30 02:48:18;;;;;;;8.47;4.10;;;;;;;;;;5054989;28;20232;-82
2021/03/30 02:50:46;;;;;;;14.37;4.43;;;;;;;;;;5050578;28;20257;-83
2021/03/30 02:53:13;;;;;;;10.17;4.57;;;;;;;;;;5057015;28;20203;-83
2021/03/30 02:55:41;;;;;;;12.27;4.13;;;;;;;;;;5057947;28;20227;-83
2021/03/30 02:58:09;;;;;;;11.30;4.20;;;;;;;;;;5055397;28;20285;-83
2021/03/30 03:00:36;;;;;;;13.07;4.80;;;;;;;;;;5049321;28;20210;-83
2021/03/30 03:03:04;;;;;;;14.70;4.83;;;;;;;;;;5051464;28;20235;-84
2021/03/30 03:05:30;;;;;;;11.70;4.47;;;;;;;;;;5053997;28;20230;-83
2021/03/30 03:07:57;;;;;;;11.87;4.70;;;;;;;;;;5047985;28;20728;-83
2021/03/30 03:10:24;;;;;;;13.17;4.60;;;;;;;;;;5055129;28;20244;-82
2021/03/30 03:12:52;;;;;;;8.83;4.37;;;;;;;;;;5047379;28;20235;-82
2021/03/30 03:15:21;;;;;;;9.53;4.23;;;;;;;;;;5052127;28;20265;-82
2021/03/30 03:17:49;;;;;;;10.87;3.93;;;;;;;;;;5053736;28;20226;-83
2021/03/30 03:20:16;;;;;;;10.57;4.00;;;;;;;;;;5044115;28;20207;-82
2021/03/30 03:22:43;;;;;;;11.20;4.07;;;;;;;;;;5051649;28;20257;-82
2021/03/30 03:25:14;;;;;;;18.90;4.90;;;;;;;;;;5055460;28;20222;-83
2021/03/30 03:27:43;;;;;;;14.70;4.73;;;;;;;;;;5051519;28;20218;-83
2021/03/30 03:30:10;;;;;;;8.97;4.13;;;;;;;;;;5055668;28;20452;-82
2021/03/30 03:32:42;;;;;;;12.03;3.87;;;;;;;;;;5054540;28;20214;-83
2021/03/30 03:35:13;;;;;;;10.50;4.27;;;;;;;;;;5059325;28;20534;-83
2021/03/30 03:37:43;;;;;;;8.30;3.97;;;;;;;;;;5053759;28;20239;-83
2021/03/30 03:40:11;;;;;;;7.93;4.23;;;;;;;;;;5046372;28;20516;-83
2021/03/30 03:42:37;;;;;;;9.07;4.60;;;;;;;;;;5049226;28;21033;-83
2021/03/30 03:45:05;;;;;;;11.03;4.20;;;;;;;;;;5063565;28;20233;-83
2021/03/30 03:47:33;;;;;;;11.77;4.23;;;;;;;;;;5059718;28;20227;-83
2021/03/30 03:50:02;;;;;;;10.23;4.17;;;;;;;;;;5051288;28;20283;-83
2021/03/30 03:52:29;;;;;;;12.23;4.53;;;;;;;;;;5066876;28;20226;-83
2021/03/30 03:54:57;;;;;;;11.33;4.40;;;;;;;;;;5082199;28;20202;-83
2021/03/30 03:57:25;;;;;;;9.07;4.10;;;;;;;;;;5080875;28;20215;-83
2021/03/30 03:59:52;;;;;;;14.30;4.30;;;;;;;;;;5080610;28;20198;-82
2021/03/30 04:02:25;;;;;;;9.30;4.30;;;;;;;;;;5052155;28;20286;-82
2021/03/30 04:04:55;;;;;;;14.00;4.50;;;;;;;;;;5046784;28;20753;-83
2021/03/30 04:07:27;;;;;;;9.67;4.53;;;;;;;;;;5053558;28;20227;-83
2021/03/30 04:09:55;;;;;;;8.57;4.60;;;;;;;;;;5053078;28;20472;-82
2021/03/30 04:12:24;;;;;;;9.60;4.50;;;;;;;;;;5058304;28;20328;-83
2021/03/30 04:14:51;;;;;;;13.80;4.83;;;;;;;;;;5055575;28;20274;-83
2021/03/30 04:17:21;;;;;;;8.37;3.70;;;;;;;;;;5052969;28;20524;-83
2021/03/30 04:19:48;;;;;;;11.67;4.53;;;;;;;;;;5056740;28;20215;-83
2021/03/30 04:22:15;;;;;;;10.17;4.50;;;;;;;;;;5055323;28;20294;-82
2021/03/30 04:24:43;;;;;;;17.33;4.33;;;;;;;;;;5058203;28;20215;-82
2021/03/30 04:27:10;;;;;;;7.43;4.10;;;;;;;;;;5052520;28;20243;-83
2021/03/30 04:29:36;;;;;;;11.73;4.80;;;;;;;;;;5058167;28;20199;-83
2021/03/30 04:50:26;;;;;;;14.50;4.10;;;;;;;;;;4794404;29;20728;-86
2021/03/30 04:52:53;;;;;;;6.80;3.83;;;0.00;99.90;;;;;;4836324;29;20536;-84
2021/03/30 04:55:21;;;;;;;9.33;4.27;;;-0.10;99.90;;;;;;4897132;29;20613;-85
2021/03/30 04:57:49;;;;;;;16.60;5.07;;;0.00;99.90;;;;;;4893812;29;20454;-87
2021/03/30 05:03:19;;;;;;;16.50;4.20;;;;;;;;;;4895879;29;20468;-86
2021/03/30 05:15:16;;;;;;;10.60;4.27;;;0.00;99.90;;;;;;4989774;28;20454;-84
2021/03/30 05:18:11;;;;;;;13.33;3.93;;;0.00;99.90;;;;;;4990469;28;20624;-82
2021/03/30 05:24:00;;;;;;;8.73;3.53;;;0.00;99.90;;;;;;5043275;28;21028;-86
2021/03/30 05:26:27;;;;;;;11.90;4.37;;;0.00;99.90;;;;;;5049744;28;20926;-85
2021/03/30 05:28:59;;;;;;;13.43;4.03;;;0.10;99.90;;;;;;5047833;28;20461;-86
2021/03/30 05:31:32;;;;;;;15.40;4.13;;;0.10;99.90;;;;;;5045347;28;20295;-86
2021/03/30 05:34:02;;;;;;;14.10;6.00;;;0.20;99.90;;;;;;5046497;28;20871;-86
2021/03/30 05:36:32;;;;;;;12.97;5.00;;;0.30;99.90;;;;;;5043898;28;20625;-85
2021/03/30 05:38:59;;;;;;;16.60;4.77;;;0.30;99.90;;;;;;5042628;28;20858;-86
2021/03/30 05:41:35;;;;;;;7.20;4.07;;;0.30;99.90;;;;;;5050570;28;20477;-85
2021/03/30 05:44:02;;;;;;;16.27;4.70;;;0.40;99.90;;;;;;5043384;28;20217;-86
2021/03/30 05:46:31;;;;;;;11.57;5.13;;;0.50;99.90;;;;;;5051636;28;20272;-85
2021/03/30 05:48:57;;;;;;;11.07;4.97;;;0.60;99.90;;;;;;5042140;28;20303;-81
2021/03/30 05:51:29;;;;;;;10.57;4.20;;;0.70;99.90;;;;;;5047409;28;20226;-86
2021/03/30 05:54:15;;;;;;;11.63;4.70;;;0.70;99.90;;;;;;5053841;28;20222;-86
2021/03/30 05:57:12;;;;;;;19.87;4.77;;;0.90;99.90;;;;;;5045883;28;20581;-85
2021/03/30 06:00:46;;;;;;;13.47;5.23;;;1.00;99.90;;;;;;5051330;28;20241;-86
2021/03/30 06:03:24;;;;;;;14.50;4.50;;;1.40;99.90;;;;;;5044443;28;20303;-84
2021/03/30 06:05:53;;;;;;;16.60;4.40;;;2.80;99.90;;;;;;5044335;28;20227;-87
2021/03/30 06:11:19;;;;;;;10.27;4.67;;;6.30;99.90;;;;;;5041647;28;20214;-87
2021/03/30 06:14:04;;;;;;;9.27;3.73;;;8.10;99.90;;;;;;5050657;28;20239;-86
2021/03/30 06:17:05;;;;;;;12.33;4.63;;;9.90;99.90;;;;;;5047774;28;20291;-86
2021/03/30 06:23:59;;;;;;;8.67;3.77;;;11.30;99.90;;;;;;5048675;28;20237;-88
2021/03/30 06:29:26;;;;;;;13.63;3.90;;;;;;;;;;4939941;28;20254;-87
2021/03/30 06:31:55;;;;;;;11.60;4.53;;;12.10;99.90;;;;;;5035822;28;20292;-84
2021/03/30 06:34:28;;;;;;;10.10;3.97;;;13.40;99.90;;;;;;5042470;28;20203;-86
2021/03/30 06:36:57;;;;;;;12.10;4.50;;;12.70;99.90;;;;;;5047149;28;20234;-86
2021/03/30 06:39:33;;;;;;;11.33;4.20;;;;;;;;;;5046469;28;20206;-85
2021/03/30 06:42:02;;;;;;;16.50;4.47;;;12.60;99.90;;;;;;5039949;28;20254;-85
2021/03/30 06:44:35;;;;;;;10.77;4.77;;;12.00;99.90;;;;;;5040808;28;20214;-86
2021/03/30 06:47:06;;;;;;;10.60;4.50;;;12.50;99.90;;;;;;5041037;28;20226;-86
2021/03/30 06:49:36;;;;;;;12.50;4.40;;;12.90;99.90;;;;;;5039004;28;20692;-86
2021/03/30 06:52:17;;;;;;;12.30;4.57;;;13.10;99.90;;;;;;5046625;28;20694;-87
2021/03/30 06:54:54;;;;;;;14.13;4.47;;;13.60;99.90;;;;;;5039084;28;20195;-86
2021/03/30 06:57:58;;;;;;;12.93;4.87;;;13.40;99.90;;;;;;5051044;28;20211;-87
2021/03/30 07:00:29;;;;;;;10.30;4.70;;;13.40;99.90;;;;;;4983771;28;20291;-86
2021/03/30 07:02:59;;;;;;;14.93;5.37;;;13.20;99.90;;;;;;5035521;28;20701;-87
2021/03/30 07:05:38;;;;;;;11.27;5.03;;;12.90;99.90;;;;;;5036639;28;20430;-87
2021/03/30 07:08:12;;;;;;;14.57;5.07;;;13.30;99.90;;;;;;5046467;28;20206;-85
2021/03/30 07:10:40;;;;;;;17.50;4.73;;;13.60;99.90;;;;;;5045999;28;20211;-87
2021/03/30 07:13:14;;;;;;;15.00;5.47;;;14.40;99.90;;;;;;5046836;28;20234;-85
2021/03/30 07:15:42;;;;;;;16.07;4.60;;;14.60;99.90;;;;;;5051080;28;20302;-85
2021/03/30 07:18:18;;;;;;;8.10;3.90;;;14.80;99.90;;;;;;5049359;28;20694;-86
2021/03/30 07:20:47;;;;;;;9.80;4.87;;;14.60;99.90;;;;;;5051865;28;20206;-87
2021/03/30 07:23:24;;;;;;;13.67;4.07;;;14.50;99.90;;;;;;5047842;28;20809;-87
2021/03/30 07:26:00;;;;;;;9.87;4.27;;;15.00;99.90;;;;;;5044199;28;20217;-86
2021/03/30 07:28:31;;;;;;;18.87;5.00;;;14.70;99.90;;;;;;5043874;28;20226;-87
2021/03/30 07:31:05;;;;;;;13.73;5.00;;;15.20;99.90;;;;;;5039337;28;20346;-85
2021/03/30 07:33:49;;;;;;;11.70;5.00;;;15.10;99.90;;;;;;5047409;28;20281;-86
2021/03/30 07:36:17;;;;;;;12.33;5.37;;;14.80;99.90;;;;;;5047026;28;20527;-85
2021/03/30 07:38:46;;;;;;;16.10;5.23;;;15.00;99.90;;;;;;5045097;28;20571;-85
2021/03/30 07:41:13;;;;;;;13.50;4.57;;;15.90;99.90;;;;;;5048910;28;20219;-86
2021/03/30 07:43:40;;;;;;;14.23;4.77;;;16.30;99.90;;;;;;5043262;28;20227;-86
2021/03/30 07:46:07;;;;;;;12.40;5.13;;;16.00;99.90;;;;;;5048265;28;20223;-85
2021/03/30 07:48:39;;;;;;;12.40;4.60;;;16.30;99.90;;;;;;5068824;28;20573;-84
2021/03/30 07:51:08;;;;;;;13.77;4.33;;;16.60;99.90;;;;;;5045326;28;20691;-87
2021/03/30 07:53:39;;;;;;;14.27;5.13;;;18.00;99.90;;;;;;5042807;28;20322;-86
2021/03/30 07:56:08;;;;;;;12.97;4.57;;;18.80;99.90;;;;;;5039165;28;20631;-88
2021/03/30 07:58:40;;;;;;;15.80;4.53;;;18.50;99.90;;;;;;5044863;28;20219;-85
2021/03/30 08:01:08;;;;;;;11.80;4.60;;;18.30;99.90;;;;;;5053772;28;20211;-87
2021/03/30 08:03:36;;;;;;;14.87;4.73;;;18.60;99.90;;;;;;5051738;28;20253;-87
2021/03/30 08:06:24;;;;;;;13.23;4.77;;;18.80;99.90;;;;;;5043217;28;20219;-87
2021/03/30 08:08:56;;;;;;;12.00;4.00;;;19.00;99.90;;;;;;5049016;28;20211;-86
2021/03/30 08:11:49;;;;;;;10.40;3.70;;;19.90;99.90;;;;;;5044234;28;20209;-85
2021/03/30 08:14:39;;;;;;;7.93;3.30;;;20.60;99.90;;;;;;5044093;28;20222;-85
2021/03/30 08:17:09;;;;;;;10.83;3.73;;;20.10;99.90;;;;;;5049328;28;20309;-86
2021/03/30 08:19:55;;;;;;;13.23;3.67;;;19.90;99.90;;;;;;5050804;28;20585;-86
2021/03/30 08:22:22;;;;;;;6.27;3.40;;;19.90;99.90;;;;;;5051366;28;20687;-87
2021/03/30 08:25:01;;;;;;;5.73;3.53;;;20.50;99.90;;;;;;5048701;28;20223;-88
2021/03/30 08:27:38;;;;;;;15.43;3.40;;;20.90;99.90;;;;;;5052795;28;20196;-85
2021/03/30 08:30:14;;;;;;;6.23;3.40;;;21.20;99.90;;;;;;5043136;28;20209;-87
2021/03/30 08:32:49;;;;;;;13.30;3.33;;;21.30;99.90;;;;;;5046460;28;20696;-88
2021/03/30 08:35:35;;;;;;;8.60;3.47;;;21.50;99.90;;;;;;5051528;28;20202;-86
2021/03/30 08:38:02;;;;;;;8.53;2.93;;;22.10;99.90;;;;;;5044433;28;20696;-86
2021/03/30 08:40:45;;;;;;;8.33;3.23;;;21.70;99.90;;;;;;5050769;28;20222;-85
2021/03/30 08:43:23;;;;;;;7.87;3.20;;;22.20;99.90;;;;;;5043586;28;20815;-85
2021/03/30 08:46:13;;;;;;;10.53;3.63;;;22.30;99.90;;;;;;5047919;28;20215;-86
2021/03/30 08:48:48;;;;;;;6.83;3.40;;;22.90;98.80;;;;;;5039327;28;20218;-85
2021/03/30 08:51:16;;;;;;;10.23;4.20;;;22.80;98.20;;;;;;5054771;28;20732;-85
2021/03/30 08:53:43;;;;;;;9.30;3.80;;;22.80;99.90;;;;;;5046497;28;20230;-84
2021/03/30 08:56:11;;;;;;;9.20;3.73;;;23.60;98.60;;;;;;5048573;28;20731;-87
2021/03/30 08:58:44;;;;;;;10.80;3.73;;;23.90;97.70;;;;;;5052928;28;20265;-86
2021/03/30 09:01:11;;;;;;;9.77;3.97;;;24.10;97.70;;;;;;5043376;28;20222;-84
2021/03/30 09:03:38;;;;;;;13.20;4.00;;;23.80;97.90;;;;;;5043001;28;20230;-87
2021/03/30 09:06:05;;;;;;;10.47;3.70;;;22.60;99.20;;;;;;5053817;28;20218;-85
2021/03/30 09:08:38;;;;;;;7.67;3.70;;;21.80;98.60;;;;;;5056688;28;20239;-85
2021/03/30 09:11:19;;;;;;;10.40;3.60;;;21.10;99.90;;;;;;5040596;28;20235;-82
2021/03/30 09:14:04;;;;;;;11.23;4.13;;;20.00;99.90;;;;;;5061108;28;20231;-85
2021/03/30 09:16:31;;;;;;;12.60;3.87;;;19.30;99.90;;;;;;5052868;28;20321;-85
2021/03/30 09:19:22;;;;;;;9.80;3.40;;;18.80;99.90;;;;;;5052384;28;20215;-84
2021/03/30 09:21:54;;;;;;;9.33;3.77;;;18.50;99.90;;;;;;5049934;28;20228;-84
2021/03/30 09:27:06;;;;;;;14.20;4.60;;;18.30;99.90;;;;;;5054486;28;20198;-84
2021/03/30 09:29:37;;;;;;;10.53;3.80;;;18.30;99.90;;;;;;5054313;28;20222;-85
2021/03/30 09:32:05;;;;;;;9.60;4.10;;;18.20;99.90;;;;;;5044072;28;20253;-84
2021/03/30 09:34:32;;;;;;;13.53;5.93;;;18.30;99.90;;;;;;5047722;28;20204;-83
2021/03/30 09:36:59;;;;;;;12.80;6.30;;;18.50;99.90;;;;;;5044039;28;20653;-84
2021/03/30 09:39:27;;;;;;;15.23;5.90;;;18.60;99.90;;;;;;5051481;28;20218;-84
2021/03/30 09:41:55;;;;;;;17.77;6.40;;;18.70;99.90;;;;;;5044920;28;20254;-84
2021/03/30 09:44:23;;;;;;;10.20;4.73;;;18.80;99.90;;;;;;5039982;28;20239;-85
2021/03/30 09:46:56;;;;;;;13.50;5.53;;;18.90;99.90;;;;;;5041860;28;20207;-85
2021/03/30 09:49:24;;;;;;;13.33;5.37;;;18.90;99.90;;;;;;5047249;28;20214;-83
2021/03/30 09:51:53;;;;;;;8.47;4.67;;;19.00;99.90;;;;;;5047913;28;20219;-83
2021/03/30 09:54:25;;;;;;;13.20;4.53;;;19.10;99.90;;;;;;5060756;28;20203;-83
2021/03/30 09:57:03;;;;;;;13.00;4.53;;;19.30;99.90;;;;;;5050312;28;20275;-83
2021/03/30 09:59:31;;;;;;;11.40;4.67;;;19.40;99.60;;;;;;5048640;28;20203;-84
2021/03/30 10:01:59;;;;;;;9.93;4.67;;;19.40;99.60;;;;;;5049078;28;20225;-84
2021/03/30 10:04:27;;;;;;;10.43;4.70;;;19.50;98.80;;;;;;5054494;28;20467;-84
2021/03/30 10:06:54;;;;;;;13.20;4.80;;;19.60;99.10;;;;;;5053840;28;20215;-84
2021/03/30 10:09:21;;;;;;;11.10;4.90;;;19.70;99.60;;;;;;5047501;28;20241;-82
2021/03/30 10:11:51;;;;;;;12.47;4.77;;;19.80;98.70;;;;;;5055239;28;20278;-80
2021/03/30 10:14:26;;;;;;;11.67;4.87;;;19.90;97.70;;;;;;5055916;28;20724;-84
2021/03/30 10:16:54;;;;;;;10.13;4.70;;;20.10;97.20;;;;;;5048361;28;20226;-85
2021/03/30 10:19:22;;;;;;;10.13;4.40;;;20.20;98.50;;;;;;5050181;28;20211;-83
2021/03/30 10:21:54;;;;;;;8.93;4.07;;;20.30;97.80;;;;;;5047213;28;20717;-81
2021/03/30 10:24:20;;;;;;;9.03;4.00;;;20.50;96.40;;;;;;5050215;28;20627;-83
2021/03/30 10:27:08;;;;;;;9.93;4.30;;;20.60;96.00;;;;;;5047805;28;20216;-83
2021/03/30 10:29:37;;;;;;;11.00;4.33;;;20.50;96.20;;;;;;5051008;28;20596;-82
2021/03/30 10:32:11;;;;;;;9.63;4.27;;;20.40;96.20;;;;;;5044765;28;20235;-83
2021/03/30 10:34:41;;;;;;;15.23;3.73;;;20.20;95.10;;;;;;5089426;22;20231;-83
2021/03/30 10:37:11;;;;;;;6.80;3.30;;;20.30;95.90;;;;;;5028018;28;20563;-82
2021/03/30 10:39:39;;;;;;;9.33;3.40;;;20.30;95.40;;;;;;5027675;28;20203;-82
2021/03/30 10:42:11;;;;;;;7.97;3.67;;;20.50;98.50;;;;;;5031038;28;20587;-82
2021/03/30 10:44:40;;;;;;;10.53;3.37;;;20.70;95.60;;;;;;5017466;28;20227;-82
2021/03/30 10:47:18;;;;;;;8.30;3.07;;;20.70;94.70;;;;;;5011888;28;20287;-82
2021/03/30 10:49:47;;;;;;;6.50;3.07;;;20.80;95.20;;;;;;5008959;28;20219;-82
2021/03/30 10:52:21;;;;;;;7.20;3.33;;;20.80;94.70;;;;;;5009681;28;20204;-82
2021/03/30 10:54:50;;;;;;;7.27;3.17;;;20.80;95.00;;;;;;5026308;28;20236;-81
2021/03/30 10:57:25;;;;;;;7.67;3.03;;;20.90;95.50;;;;;;5028643;28;20649;-81
2021/03/30 10:59:51;;;;;;;9.53;3.70;;;20.80;93.70;;;;;;5023687;28;20261;-82
2021/03/30 11:02:20;;;;;;;9.07;3.30;;;20.80;93.60;;;;;;5012700;28;20274;-82
2021/03/30 11:04:47;;;;;;;6.97;3.33;;;20.70;94.60;;;;;;5004743;28;20263;-82
2021/03/30 11:07:13;;;;;;;9.43;3.30;;;20.90;94.60;;;;;;5007511;28;20700;-81
2021/03/30 11:09:43;;;;;;;7.77;3.23;;;20.90;94.70;;;;;;5011877;28;20323;-82
2021/03/30 11:12:11;;;;;;;6.87;3.40;;;21.00;93.70;;;;;;5010328;28;20219;-82
2021/03/30 11:14:39;;;;;;;5.53;3.03;;;21.10;92.80;;;;;;5005592;28;20330;-82
2021/03/30 11:17:06;;;;;;;4.70;2.87;;;21.10;93.50;;;;;;5009188;28;20324;-82
2021/03/30 11:19:35;;;;;;;6.90;3.20;;;21.10;92.90;;;;;;5008509;28;20294;-82
2021/03/30 11:22:05;;;;;;;4.83;2.37;;;21.00;95.00;;;;;;5009161;28;20213;-83
2021/03/30 11:24:34;;;;;;;8.93;3.20;;;21.20;94.90;;;;;;5011995;28;20224;-81
2021/03/30 11:27:01;;;;;;;5.97;2.90;;;21.40;94.70;;;;;;5006310;28;20648;-81
2021/03/30 11:29:38;;;;;;;4.97;2.50;;;21.60;94.60;;;;;;5009648;28;20216;-81
2021/03/30 11:32:23;;;;;;;7.17;3.17;;;21.70;93.20;;;;;;5007666;28;20196;-82
2021/03/30 11:34:54;;;;;;;6.37;2.97;;;21.60;93.00;;;;;;5010215;28;20232;-82
2021/03/30 11:37:37;;;;;;;7.20;2.83;;;21.60;92.60;;;;;;5008343;28;20775;-82
2021/03/30 11:40:08;;;;;;;7.03;2.80;;;21.80;94.60;;;;;;5011903;28;20358;-83
2021/03/30 11:42:36;;;;;;;11.07;2.83;;;22.00;93.50;;;;;;5007301;28;20272;-81
2021/03/30 11:45:03;;;;;;;8.43;2.97;;;22.00;93.50;;;;;;5008860;28;20306;-82
2021/03/30 11:47:29;;;;;;;7.10;3.10;;;22.00;92.90;;;;;;5007655;28;20224;-82
2021/03/30 11:49:55;;;;;;;12.03;3.17;;;22.00;92.70;;;;;;5006826;28;20587;-82
2021/03/30 11:52:22;;;;;;;10.33;3.00;;;22.10;92.60;;;;;;5010345;28;20220;-82
2021/03/30 11:54:50;;;;;;;8.70;2.93;;;22.10;91.10;;;;;;5010912;28;20645;-83
2021/03/30 11:57:19;;;;;;;4.13;2.47;;;21.90;90.50;;;;;;5010313;28;20229;-82
2021/03/30 11:59:47;;;;;;;7.93;2.43;;;22.00;90.00;;;;;;5016288;28;20259;-82
2021/03/30 12:02:14;;;;;;;7.07;3.00;;;22.10;90.30;;;;;;5010168;28;20332;-82
2021/03/30 12:04:40;;;;;;;7.53;2.53;;;22.20;89.60;;;;;;5008040;28;20712;-82
2021/03/30 12:07:06;;;;;;;6.77;2.23;;;22.30;88.80;;;;;;5011015;28;20758;-82
2021/03/30 12:09:33;;;;;;;6.73;2.50;;;22.10;87.50;;;;;;5006796;28;20313;-82
2021/03/30 12:12:00;;;;;;;5.50;2.37;;;22.10;90.00;;;;;;5007384;28;20590;-82
2021/03/30 12:14:28;;;;;;;9.27;3.00;;;22.20;88.30;;;;;;5011946;28;20316;-82
2021/03/30 12:16:54;;;;;;;4.47;2.40;;;22.20;85.80;;;;;;5014180;28;20302;-83
2021/03/30 12:19:23;;;;;;;6.23;2.27;;;22.10;86.90;;;;;;5010309;28;20671;-83
2021/03/30 12:21:54;;;;;;;5.87;2.30;;;22.20;85.60;;;;;;5011173;28;20729;-83
2021/03/30 12:24:21;;;;;;;8.57;2.30;;;22.20;84.80;;;;;;5013016;28;20301;-83
2021/03/30 12:26:47;;;;;;;4.77;1.83;;;22.40;88.00;;;;;;5012202;28;20297;-83
2021/03/30 12:29:15;;;;;;;6.63;2.40;;;22.60;89.00;;;;;;5005142;28;20244;-83
2021/03/30 12:31:42;;;;;;;8.13;1.87;;;22.50;87.10;;;;;;5010556;28;20232;-83
2021/03/30 12:34:08;;;;;;;6.63;2.00;;;22.50;83.60;;;;;;5008727;28;20244;-81
2021/03/30 12:36:35;;;;;;;4.10;2.00;;;22.60;83.50;;;;;;5015372;28;20208;-82
2021/03/30 12:39:04;;;;;;;4.87;2.20;;;22.70;83.00;;;;;;5028725;28;20195;-81
2021/03/30 12:41:30;;;;;;;5.63;2.03;;;22.70;82.30;;;;;;5031096;28;20213;-82
2021/03/30 12:43:57;;;;;;;5.13;2.20;;;22.70;80.60;;;;;;5008740;28;20750;-83
2021/03/30 12:46:24;;;;;;;4.23;1.93;;;22.70;84.00;;;;;;5010564;28;20196;-82
2021/03/30 12:48:50;;;;;;;4.37;1.70;;;22.70;82.50;;;;;;5010725;28;20205;-81
2021/03/30 12:51:17;;;;;;;6.17;2.13;;;22.60;82.90;;;;;;5009614;28;20213;-82
2021/03/30 12:53:43;;;;;;;5.33;1.73;;;22.60;82.50;;;;;;5010946;28;20244;-81
2021/03/30 12:56:10;;;;;;;5.33;1.90;;;22.50;80.40;;;;;;5007460;28;20220;-83
2021/03/30 12:58:39;;;;;;;6.13;1.80;;;22.60;81.40;;;;;;5008488;28;20204;-83
2021/03/30 13:01:05;;;;;;;6.80;2.07;;;22.50;78.80;;;;;;5004831;28;20957;-83
2021/03/30 13:03:33;;;;;;;8.47;2.03;;;22.50;77.80;;;;;;5009933;28;20243;-83
2021/03/30 13:05:59;;;;;;;5.97;1.90;;;22.50;79.70;;;;;;5006537;28;20232;-83
2021/03/30 13:08:25;;;;;;;4.47;1.63;;;22.60;80.40;;;;;;5011804;28;20268;-82
2021/03/30 13:10:52;;;;;;;5.80;1.80;;;22.50;79.30;;;;;;5010585;28;20232;-82
2021/03/30 13:13:18;;;;;;;5.73;1.67;;;22.40;80.00;;;;;;5005677;28;20669;-83
2021/03/30 13:15:46;;;;;;;6.93;1.90;;;22.50;81.10;;;;;;5010666;28;20300;-82
2021/03/30 13:18:13;;;;;;;3.87;1.60;;;22.50;79.90;;;;;;5009345;28;20246;-82
2021/03/30 13:20:40;;;;;;;4.47;1.83;;;22.60;77.70;;;;;;5002172;28;20296;-82
2021/03/30 13:23:09;;;;;;;5.60;1.63;;;22.50;78.50;;;;;;5008644;28;20251;-82
2021/03/30 13:25:36;;;;;;;3.27;1.60;;;22.50;80.40;;;;;;5005977;28;20207;-83
2021/03/30 13:28:07;;;;;;;3.03;1.67;;;22.60;78.80;;;;;;5010475;28;20957;-83
2021/03/30 13:30:34;;;;;;;10.53;1.50;;;22.60;77.20;;;;;;5009330;28;20287;-82
2021/03/30 13:33:04;;;;;;;4.50;1.80;;;22.60;76.20;;;;;;5008174;28;20557;-82
2021/03/30 13:35:31;;;;;;;3.43;1.70;;;22.60;74.80;;;;;;5008894;28;20263;-83
2021/03/30 13:37:58;;;;;;;4.53;1.90;;;22.50;76.40;;;;;;5008450;28;20225;-83
2021/03/30 13:40:30;;;;;;;3.53;1.70;;;22.70;75.80;;;;;;5006427;28;20248;-82
2021/03/30 13:42:57;;;;;;;3.73;1.47;;;22.70;76.90;;;;;;5007613;28;20358;-82
2021/03/30 13:45:26;;;;;;;4.20;1.67;;;22.70;73.80;;;;;;5007679;28;20217;-83
2021/03/30 13:47:53;;;;;;;3.07;1.50;;;22.60;74.00;;;;;;5008755;28;20201;-83
2021/03/30 13:50:19;;;;;;;5.13;1.80;;;22.70;74.00;;;;;;5004236;28;20297;-82
2021/03/30 13:52:46;;;;;;;5.47;1.80;;;22.70;74.40;;;;;;5003372;28;20219;-83
2021/03/30 13:55:14;;;;;;;11.50;2.00;;;22.70;72.70;;;;;;5009310;28;20278;-83
2021/03/30 13:57:43;;;;;;;4.53;1.77;;;22.50;74.00;;;;;;5006673;28;20256;-83
2021/03/30 14:00:14;;;;;;;4.73;1.73;;;22.70;73.50;;;;;;5003578;28;20287;-84
2021/03/30 14:02:42;;;;;;;11.23;1.80;;;22.70;74.60;;;;;;5010715;28;20246;-84
2021/03/30 14:05:10;;;;;;;3.90;1.73;;;22.70;73.90;;;;;;5004712;28;20468;-84
2021/03/30 14:07:36;;;;;;;4.40;1.77;;;22.70;73.40;;;;;;5009294;28;20204;-83
2021/03/30 14:10:05;;;;;;;4.57;1.60;;;22.60;74.60;;;;;;5006978;28;20201;-84
2021/03/30 14:12:35;;;;;;;6.23;2.37;;;22.60;74.80;;;;;;5005206;28;20216;-84
2021/03/30 14:15:06;;;;;;;4.97;1.53;;;22.60;73.00;;;;;;5023723;28;20258;-83
2021/03/30 14:17:33;;;;;;;2.73;1.33;;;22.70;73.10;;;;;;5028049;28;20223;-83
2021/03/30 14:20:02;;;;;;;3.50;1.63;;;22.60;71.00;;;;;;5027924;28;20196;-83
2021/03/30 14:22:33;;;;;;;7.23;1.50;;;22.60;71.60;;;;;;5009119;28;20254;-85